Terminal Aerodrome Forecast
Issued by NWS Sioux Falls, SD

Home | Current Version | Previous Version | Graphics & Text | Print | Product List | Glossary Off
Versions: 1 2 3 4 5 6 7 8 9 10 11 12 13 14 15 16 17

000
FTUS43 KFSD 260500
TAFHON
TAF
KHON 260521Z 2606/2706 VRB04KT P6SM BKN150
     FM261000 13005KT P6SM BKN120
     FM261500 24008KT P6SM SCT120
     FM261900 33015G22KT P6SM SKC
     FM270200 31007KT P6SM SKC=

USA.gov is the U.S. government's official web portal to all federal, state and local government web resources and services.